Novomichurinsk, Russia
Current Conditions -  °F | °C
As of 5:30 AM on Friday 21 Nov 2014 (Local Time) from UUDD Reporting Station
Haze Haze  
Wind Chill:   Ceiling: Unl
Heat Index:   Visibility: 2.8mi
Dew Point:   Wind: 2mph
Humidity: 92%   Direction: 230°SW
Pressure: 30.59"   Gusts: NA
Location:  54.04°N, 39.78°E
Report Text: UUDD 210230Z 23001MPS 4600 BR SKC M13/M14 Q1036 32190095 NOSIG
Loading
Personal Weather Stations






























Interactive Weather Map New forecast layout! Learn more

10-Day Weather Forecast

Advertisements
Track Severe Weather on mobile